Geervliet — PCLI — position and weather

sailwx.info

Track history (hours):
 
Tides and Currents Weather Stations Pressure Air Temp Water Temp Dewpoint Dewpoint Depression Visibility Wind Speed Wind Dir Waves Ship Positions

Geervliet

Last reported at 2014-Dec-22 15:32 UTC. Time now 2014-Dec-22 15:39 UTC.
Position N 53°47' E 006°13'.

Length 86 m; draft 4 m.

Type: Ship. MMSI: 246803000.

Date/timePositionNaut miles runAvg speedWind from/ knotsBaromVisibWave heightAir tempDewpointWater temp
2014-Dec-22 15:32N 53°47' E 006°13'49 3.8
2014-Dec-22 02:33N 53°60' E 007°33'6 6.2
2014-Dec-22 01:34N 54°02' E 007°43'6 5.7
2014-Dec-22 00:33N 54°02' E 007°53'5 5.3
2014-Dec-21 23:33N 54°02' E 008°02'5 4.6
2014-Dec-21 22:34N 54°01' E 008°10'4 4.5
2014-Dec-21 21:34N 54°01' E 008°18'7 6.8
2014-Dec-21 20:33N 53°59' E 008°29'8 7.8
2014-Dec-21 19:33N 53°55' E 008°41'1110.6
2014-Dec-21 18:33N 53°51' E 008°57'7 7.4
2014-Dec-21 17:33N 53°54' E 009°09'2 1.6
2014-Dec-21 16:33N 53°55' E 009°11'0 0.0
2014-Dec-21 15:32N 53°55' E 009°11'0 0.0
2014-Dec-21 14:32N 53°55' E 009°11'0 0.2
2014-Dec-21 13:34N 53°55' E 009°11'8 8.2
2014-Dec-21 12:33N 54°02' E 009°18'8 8.1
2014-Dec-21 11:34N 54°09' E 009°23'8 8.5
2014-Dec-21 10:34N 54°14' E 009°36'8 8.2
2014-Dec-21 09:33N 54°20' E 009°44'8 8.2
2014-Dec-21 08:33N 54°21' E 009°58'5 4.9
2014-Dec-21 07:34N 54°22' E 010°06'2 2.1
2014-Dec-21 06:34N 54°22' E 010°10'5 4.5
2014-Dec-21 05:33N 54°26' E 010°13'10 9.8
2014-Dec-21 04:34N 54°32' E 010°26'19 9.5
2014-Dec-21 02:33N 54°36' E 010°59'8 8.4
2014-Dec-21 01:34N 54°35' E 011°13'8 7.9
2014-Dec-21 00:33N 54°32' E 011°25'7 7.3
2014-Dec-20 23:33N 54°26' E 011°34'8 8.3
2014-Dec-20 22:33N 54°21' E 011°44'8 8.1
2014-Dec-20 21:33N 54°16' E 011°56'8 7.6
2014-Dec-20 20:34N 54°11' E 012°05'2 1.9
2014-Dec-20 19:33N 54°09' E 012°07'0 0.0
2014-Dec-20 18:27N 54°09' E 012°07'0 0.0
2014-Dec-20 17:27N 54°09' E 012°07'0 0.0
2014-Dec-20 16:15N 54°09' E 012°07'0 0.0
2014-Dec-20 15:33N 54°09' E 012°07'0 0.0
2014-Dec-20 14:33N 54°09' E 012°07'0 0.0
2014-Dec-20 13:27N 54°09' E 012°07'0 0.0
2014-Dec-20 11:30N 54°09' E 012°07'0 0.0
2014-Dec-20 10:33N 54°09' E 012°07'0 0.0
2014-Dec-20 09:09N 54°09' E 012°07'0 0.0
2014-Dec-20 08:09N 54°09' E 012°07'0 0.0
2014-Dec-20 06:33N 54°09' E 012°07'0 0.0
2014-Dec-20 05:33N 54°09' E 012°07'0 0.0
2014-Dec-20 04:24N 54°09' E 012°07'0 0.0
2014-Dec-20 03:21N 54°09' E 012°07'0 0.0
2014-Dec-20 02:33N 54°09' E 012°07'0 0.0
2014-Dec-20 01:33N 54°09' E 012°07'0 0.0
2014-Dec-20 00:33N 54°09' E 012°07'0 0.0
2014-Dec-19 23:09N 54°09' E 012°07'0 0.0
2014-Dec-19 22:30N 54°09' E 012°07'0 0.0
2014-Dec-19 21:33N 54°09' E 012°07'0 0.0
2014-Dec-19 19:30N 54°09' E 012°07'0 0.0
2014-Dec-19 18:30N 54°09' E 012°07'0 0.0
2014-Dec-19 17:12N 54°09' E 012°07'0 0.0
2014-Dec-19 16:30N 54°09' E 012°07'0 0.0
2014-Dec-19 15:12N 54°09' E 012°07'0 0.0
2014-Dec-19 14:24N 54°09' E 012°07'0 0.0
2014-Dec-19 13:33N 54°09' E 012°07'0 0.0
2014-Dec-19 12:24N 54°09' E 012°07'0 0.0
2014-Dec-19 11:33N 54°09' E 012°07'0 0.0
2014-Dec-19 10:24N 54°09' E 012°07'0 0.0
2014-Dec-19 09:21N 54°09' E 012°07'0 0.0
2014-Dec-19 08:33N 54°09' E 012°07'0 0.0
2014-Dec-19 07:21N 54°09' E 012°07'0 0.0
2014-Dec-19 06:27N 54°09' E 012°07'0 0.0
2014-Dec-19 05:33N 54°09' E 012°07'0 0.0
2014-Dec-19 03:33N 54°09' E 012°07'0 0.0
2014-Dec-19 02:27N 54°09' E 012°07'0 0.0
2014-Dec-19 01:33N 54°09' E 012°07'0 0.0
2014-Dec-19 00:18N 54°09' E 012°07'0 0.0
2014-Dec-18 23:33N 54°09' E 012°07'0 0.0
2014-Dec-18 22:27N 54°09' E 012°07'0 0.0
2014-Dec-18 21:21N 54°09' E 012°07'0 0.0
2014-Dec-18 20:09N 54°09' E 012°07'0 0.0
2014-Dec-18 19:30N 54°09' E 012°07'0 0.0
2014-Dec-18 18:27N 54°09' E 012°07'0 0.0
2014-Dec-18 17:12N 54°09' E 012°07'0 0.0
2014-Dec-18 16:30N 54°09' E 012°07'0 0.0
2014-Dec-18 15:18N 54°09' E 012°07'0 0.0
2014-Dec-18 14:33N 54°09' E 012°07'0 0.0
2014-Dec-18 12:27N 54°09' E 012°07'0 0.0
2014-Dec-18 11:33N 54°09' E 012°07'0 0.4
2014-Dec-18 10:15N 54°10' E 012°06'6 9.1
2014-Dec-18 09:33N 54°16' E 012°02'1010.4
2014-Dec-18 08:34N 54°25' E 012°09'6110.2
2014-Dec-18 02:33N 54°59' E 013°38'1111.0
2014-Dec-18 01:33N 55°02' E 013°56'1110.8
2014-Dec-18 00:33N 55°08' E 014°12'1111.1
2014-Dec-17 23:33N 55°17' E 014°24'1110.7
2014-Dec-17 22:33N 55°25' E 014°36'1010.4
2014-Dec-17 21:33N 55°31' E 014°51'1110.9
2014-Dec-17 20:33N 55°37' E 015°07'1110.8
2014-Dec-17 19:32N 55°43' E 015°24'  
Track history (hours):
 
Tides and Currents Weather Stations Pressure Air Temp Water Temp Dewpoint Dewpoint Depression Visibility Wind Speed Wind Dir Waves Ship Positions

Geervliet

Last reported at 2014-Dec-22 15:32 UTC. Time now 2014-Dec-22 15:39 UTC.
Position N 53°47' E 006°13'.

Length 86 m; draft 4 m.

Type: Ship. MMSI: 246803000.

Date/timePositionNaut miles runAvg speedWind from/ knotsBaromVisibWave heightAir tempDewpointWater temp
2014-Dec-22 15:32N 53°47' E 006°13'49 3.8
2014-Dec-22 02:33N 53°60' E 007°33'6 6.2
2014-Dec-22 01:34N 54°02' E 007°43'6 5.7
2014-Dec-22 00:33N 54°02' E 007°53'5 5.3
2014-Dec-21 23:33N 54°02' E 008°02'5 4.6
2014-Dec-21 22:34N 54°01' E 008°10'4 4.5
2014-Dec-21 21:34N 54°01' E 008°18'7 6.8
2014-Dec-21 20:33N 53°59' E 008°29'8 7.8
2014-Dec-21 19:33N 53°55' E 008°41'1110.6
2014-Dec-21 18:33N 53°51' E 008°57'7 7.4
2014-Dec-21 17:33N 53°54' E 009°09'2 1.6
2014-Dec-21 16:33N 53°55' E 009°11'0 0.0
2014-Dec-21 15:32N 53°55' E 009°11'0 0.0
2014-Dec-21 14:32N 53°55' E 009°11'0 0.2
2014-Dec-21 13:34N 53°55' E 009°11'8 8.2
2014-Dec-21 12:33N 54°02' E 009°18'8 8.1
2014-Dec-21 11:34N 54°09' E 009°23'8 8.5
2014-Dec-21 10:34N 54°14' E 009°36'8 8.2
2014-Dec-21 09:33N 54°20' E 009°44'8 8.2
2014-Dec-21 08:33N 54°21' E 009°58'5 4.9
2014-Dec-21 07:34N 54°22' E 010°06'2 2.1
2014-Dec-21 06:34N 54°22' E 010°10'5 4.5
2014-Dec-21 05:33N 54°26' E 010°13'10 9.8
2014-Dec-21 04:34N 54°32' E 010°26'19 9.5
2014-Dec-21 02:33N 54°36' E 010°59'8 8.4
2014-Dec-21 01:34N 54°35' E 011°13'8 7.9
2014-Dec-21 00:33N 54°32' E 011°25'7 7.3
2014-Dec-20 23:33N 54°26' E 011°34'8 8.3
2014-Dec-20 22:33N 54°21' E 011°44'8 8.1
2014-Dec-20 21:33N 54°16' E 011°56'8 7.6
2014-Dec-20 20:34N 54°11' E 012°05'2 1.9
2014-Dec-20 19:33N 54°09' E 012°07'0 0.0
2014-Dec-20 18:27N 54°09' E 012°07'0 0.0
2014-Dec-20 17:27N 54°09' E 012°07'0 0.0
2014-Dec-20 16:15N 54°09' E 012°07'0 0.0
2014-Dec-20 15:33N 54°09' E 012°07'0 0.0
2014-Dec-20 14:33N 54°09' E 012°07'0 0.0
2014-Dec-20 13:27N 54°09' E 012°07'0 0.0
2014-Dec-20 11:30N 54°09' E 012°07'0 0.0
2014-Dec-20 10:33N 54°09' E 012°07'0 0.0
2014-Dec-20 09:09N 54°09' E 012°07'0 0.0
2014-Dec-20 08:09N 54°09' E 012°07'0 0.0
2014-Dec-20 06:33N 54°09' E 012°07'0 0.0
2014-Dec-20 05:33N 54°09' E 012°07'0 0.0
2014-Dec-20 04:24N 54°09' E 012°07'0 0.0
2014-Dec-20 03:21N 54°09' E 012°07'0 0.0
2014-Dec-20 02:33N 54°09' E 012°07'0 0.0
2014-Dec-20 01:33N 54°09' E 012°07'0 0.0
2014-Dec-20 00:33N 54°09' E 012°07'0 0.0
2014-Dec-19 23:09N 54°09' E 012°07'0 0.0
2014-Dec-19 22:30N 54°09' E 012°07'0 0.0
2014-Dec-19 21:33N 54°09' E 012°07'0 0.0
2014-Dec-19 19:30N 54°09' E 012°07'0 0.0
2014-Dec-19 18:30N 54°09' E 012°07'0 0.0
2014-Dec-19 17:12N 54°09' E 012°07'0 0.0
2014-Dec-19 16:30N 54°09' E 012°07'0 0.0
2014-Dec-19 15:12N 54°09' E 012°07'0 0.0
2014-Dec-19 14:24N 54°09' E 012°07'0 0.0
2014-Dec-19 13:33N 54°09' E 012°07'0 0.0
2014-Dec-19 12:24N 54°09' E 012°07'0 0.0
2014-Dec-19 11:33N 54°09' E 012°07'0 0.0
2014-Dec-19 10:24N 54°09' E 012°07'0 0.0
2014-Dec-19 09:21N 54°09' E 012°07'0 0.0
2014-Dec-19 08:33N 54°09' E 012°07'0 0.0
2014-Dec-19 07:21N 54°09' E 012°07'0 0.0
2014-Dec-19 06:27N 54°09' E 012°07'0 0.0
2014-Dec-19 05:33N 54°09' E 012°07'0 0.0
2014-Dec-19 03:33N 54°09' E 012°07'0 0.0
2014-Dec-19 02:27N 54°09' E 012°07'0 0.0
2014-Dec-19 01:33N 54°09' E 012°07'0 0.0
2014-Dec-19 00:18N 54°09' E 012°07'0 0.0
2014-Dec-18 23:33N 54°09' E 012°07'0 0.0
2014-Dec-18 22:27N 54°09' E 012°07'0 0.0
2014-Dec-18 21:21N 54°09' E 012°07'0 0.0
2014-Dec-18 20:09N 54°09' E 012°07'0 0.0
2014-Dec-18 19:30N 54°09' E 012°07'0 0.0
2014-Dec-18 18:27N 54°09' E 012°07'0 0.0
2014-Dec-18 17:12N 54°09' E 012°07'0 0.0
2014-Dec-18 16:30N 54°09' E 012°07'0 0.0
2014-Dec-18 15:18N 54°09' E 012°07'0 0.0
2014-Dec-18 14:33N 54°09' E 012°07'0 0.0
2014-Dec-18 12:27N 54°09' E 012°07'0 0.0
2014-Dec-18 11:33N 54°09' E 012°07'0 0.4
2014-Dec-18 10:15N 54°10' E 012°06'6 9.1
2014-Dec-18 09:33N 54°16' E 012°02'1010.4
2014-Dec-18 08:34N 54°25' E 012°09'6110.2
2014-Dec-18 02:33N 54°59' E 013°38'1111.0
2014-Dec-18 01:33N 55°02' E 013°56'1110.8
2014-Dec-18 00:33N 55°08' E 014°12'1111.1
2014-Dec-17 23:33N 55°17' E 014°24'1110.7
2014-Dec-17 22:33N 55°25' E 014°36'1010.4
2014-Dec-17 21:33N 55°31' E 014°51'1110.9
2014-Dec-17 20:33N 55°37' E 015°07'1110.8
2014-Dec-17 19:32N 55°43' E 015°24'  

Dump ship's entire track history